createdAt,value
2019-02-09T00:01:16.117Z,42.05
2019-02-09T00:03:48.921Z,42.55
2019-02-09T00:06:21.660Z,41.92
2019-02-09T00:08:54.329Z,41.81
2019-02-09T00:11:27.124Z,42.62
2019-02-09T00:13:59.890Z,42.09
2019-02-09T00:16:32.551Z,44.57
2019-02-09T00:19:05.170Z,46.16
2019-02-09T00:21:37.923Z,42.02
2019-02-09T00:24:10.673Z,42.80
2019-02-09T00:26:46.201Z,43.74
2019-02-09T00:29:19.050Z,42.85
2019-02-09T00:31:51.759Z,41.85
2019-02-09T00:34:24.497Z,42.14
2019-02-09T00:36:57.485Z,40.25
2019-02-09T00:39:30.195Z,40.65
2019-02-09T00:42:02.936Z,42.67
2019-02-09T00:44:35.673Z,41.48
2019-02-09T00:47:07.947Z,39.32
2019-02-09T00:49:40.598Z,40.07
2019-02-09T00:52:13.348Z,40.90
2019-02-09T00:54:46.098Z,39.62
2019-02-09T00:57:19.699Z,41.21
2019-02-09T00:59:54.152Z,41.39
2019-02-09T01:02:26.651Z,40.05
2019-02-09T01:04:59.325Z,39.58
2019-02-09T01:07:32.000Z,40.23
2019-02-09T01:10:07.345Z,38.90
2019-02-09T01:12:40.125Z,38.80
2019-02-09T01:15:15.582Z,39.75
2019-02-09T01:17:48.478Z,40.10
2019-02-09T01:20:24.503Z,38.35
2019-02-09T01:22:58.472Z,38.34
2019-02-09T01:25:31.208Z,38.45
2019-02-09T01:28:04.092Z,39.62
2019-02-09T01:30:37.024Z,40.02
2019-02-09T01:33:09.692Z,38.43
2019-02-09T01:35:42.570Z,37.29
2019-02-09T01:38:15.231Z,39.14
2019-02-09T01:40:47.883Z,39.96
2019-02-09T01:43:20.562Z,37.94
2019-02-09T01:45:53.250Z,38.09
2019-02-09T01:48:25.964Z,37.66
2019-02-09T01:50:58.706Z,37.06
2019-02-09T01:53:31.383Z,37.68
2019-02-09T01:56:04.091Z,37.98
2019-02-09T01:58:36.720Z,38.74
2019-02-09T02:01:09.457Z,38.58
2019-02-09T02:03:42.169Z,39.77
2019-02-09T02:06:15.117Z,43.87
2019-02-09T02:08:47.935Z,41.52
2019-02-09T02:11:20.541Z,41.35
2019-02-09T02:13:53.354Z,43.16
2019-02-09T02:16:26.016Z,41.12
2019-02-09T02:18:58.678Z,40.81
2019-02-09T02:21:31.341Z,40.04
2019-02-09T02:24:04.328Z,41.44
2019-02-09T02:26:37.056Z,40.87
2019-02-09T02:29:09.835Z,39.37
2019-02-09T02:31:42.484Z,40.89
2019-02-09T02:34:16.301Z,40.16
2019-02-09T02:36:48.998Z,39.30
2019-02-09T02:39:23.121Z,40.75
2019-02-09T02:41:55.762Z,40.71
2019-02-09T02:44:28.400Z,40.58
2019-02-09T02:47:01.126Z,39.58
2019-02-09T02:49:33.974Z,42.10
2019-02-09T02:52:06.638Z,40.62
2019-02-09T02:54:39.362Z,40.83
2019-02-09T02:57:12.264Z,42.00
2019-02-09T02:59:45.011Z,42.56
2019-02-09T03:02:17.718Z,42.64
2019-02-09T03:04:50.448Z,44.85
2019-02-09T03:07:23.235Z,47.34
2019-02-09T03:09:55.991Z,47.39
2019-02-09T03:12:28.719Z,48.76
2019-02-09T03:15:01.552Z,49.64
2019-02-09T03:17:34.207Z,49.98
2019-02-09T03:20:10.399Z,49.92
2019-02-09T03:22:43.161Z,51.39
2019-02-09T03:25:19.330Z,52.71
2019-02-09T03:27:52.097Z,52.34
2019-02-09T03:30:25.422Z,53.23
2019-02-09T03:32:58.301Z,52.28
2019-02-09T03:35:31.007Z,53.13
2019-02-09T03:38:03.856Z,53.83
2019-02-09T03:40:36.531Z,54.29
2019-02-09T03:43:09.438Z,54.58
2019-02-09T03:45:42.123Z,54.16
2019-02-09T03:48:14.781Z,55.17
2019-02-09T03:50:47.553Z,55.35
2019-02-09T03:53:20.258Z,56.11
2019-02-09T03:55:52.932Z,57.33
2019-02-09T03:58:25.655Z,58.79
2019-02-09T04:00:58.427Z,60.85
2019-02-09T04:03:31.067Z,61.13
2019-02-09T04:06:04.217Z,61.27
2019-02-09T04:08:36.840Z,60.85
2019-02-09T04:11:10.283Z,62.04
2019-02-09T04:13:43.307Z,62.58
2019-02-09T04:16:15.952Z,63.48
2019-02-09T04:18:48.603Z,63.40
2019-02-09T04:21:21.435Z,63.92
2019-02-09T04:23:54.075Z,64.62
2019-02-09T04:26:26.671Z,65.48
2019-02-09T04:28:59.296Z,66.23
2019-02-09T04:31:31.968Z,67.97
2019-02-09T04:34:04.846Z,69.55
2019-02-09T04:36:37.524Z,69.78
2019-02-09T04:39:12.932Z,69.55
2019-02-09T04:41:45.596Z,70.20
2019-02-09T04:44:19.072Z,70.11
2019-02-09T04:46:51.779Z,70.55
2019-02-09T04:49:24.432Z,71.52
2019-02-09T04:51:57.192Z,71.41
2019-02-09T04:54:29.755Z,71.87
2019-02-09T04:57:02.369Z,71.79
2019-02-09T04:59:34.932Z,71.98
2019-02-09T05:02:07.722Z,72.51
2019-02-09T05:04:40.273Z,73.05
2019-02-09T05:07:13.034Z,74.78
2019-02-09T05:09:46.801Z,76.35
2019-02-09T05:12:19.452Z,77.40
2019-02-09T05:14:52.959Z,78.25
2019-02-09T05:17:25.607Z,78.27
2019-02-09T05:19:58.215Z,79.26
2019-02-09T05:22:30.933Z,79.47
2019-02-09T05:25:03.602Z,79.34
2019-02-09T05:27:36.409Z,78.23
2019-02-09T05:30:16.531Z,78.59
2019-02-09T05:32:49.705Z,78.50
2019-02-09T05:35:22.472Z,78.80
2019-02-09T05:37:55.189Z,78.18
2019-02-09T05:40:27.895Z,77.53
2019-02-09T05:43:00.711Z,78.02
2019-02-09T05:45:33.385Z,78.23
2019-02-09T05:48:06.054Z,78.86
2019-02-09T05:50:38.805Z,79.47
2019-02-09T05:53:11.392Z,79.45
2019-02-09T05:55:44.046Z,80.00
2019-02-09T05:58:16.682Z,79.82
2019-02-09T06:00:49.410Z,79.29
2019-02-09T06:03:22.050Z,79.05
2019-02-09T06:05:54.735Z,78.02
2019-02-09T06:57:16.923Z,75.14
2019-02-09T06:59:49.575Z,75.87
2019-02-09T07:02:22.271Z,76.02
2019-02-09T07:04:54.892Z,76.54
2019-02-09T07:07:29.901Z,76.49
2019-02-09T07:10:02.485Z,76.48
2019-02-09T07:12:35.099Z,77.77
2019-02-09T07:15:11.310Z,77.70
2019-02-09T07:17:43.979Z,77.49
2019-02-09T07:20:17.083Z,77.05
2019-02-09T07:22:49.823Z,76.96
2019-02-09T07:25:22.637Z,76.95
2019-02-09T07:27:55.369Z,76.36
2019-02-09T07:30:29.057Z,75.87
2019-02-09T07:33:01.964Z,74.66
2019-02-09T07:35:34.744Z,73.52
2019-02-09T07:38:07.601Z,71.90
2019-02-09T07:40:40.314Z,70.91
2019-02-09T07:43:13.058Z,70.49
2019-02-09T07:45:47.320Z,70.55
2019-02-09T07:48:19.933Z,69.79
2019-02-09T07:50:52.815Z,70.05
2019-02-09T07:53:26.041Z,69.20
2019-02-09T07:55:58.991Z,69.44
2019-02-09T07:58:31.665Z,69.77
2019-02-09T08:01:05.893Z,68.26
2019-02-09T08:03:38.664Z,67.94
2019-02-09T08:06:11.709Z,67.93
2019-02-09T08:08:44.307Z,67.64
2019-02-09T08:11:16.963Z,67.77
2019-02-09T08:13:49.688Z,67.23
2019-02-09T08:16:22.334Z,67.47
2019-02-09T08:18:54.948Z,66.88
2019-02-09T08:21:27.801Z,66.93
2019-02-09T08:24:00.462Z,67.10
2019-02-09T08:26:33.779Z,67.11
2019-02-09T08:29:06.528Z,67.65
2019-02-09T08:31:39.315Z,67.32
2019-02-09T08:34:12.100Z,67.33
2019-02-09T08:36:44.556Z,67.59
2019-02-09T08:39:17.197Z,66.90
2019-02-09T08:41:51.041Z,66.34
2019-02-09T08:44:23.680Z,66.49
2019-02-09T08:46:56.475Z,65.36
2019-02-09T08:49:29.191Z,64.02
2019-02-09T08:52:01.969Z,62.44
2019-02-09T08:54:34.656Z,58.17
2019-02-09T08:57:07.300Z,53.80
2019-02-09T08:59:39.962Z,52.92
2019-02-09T09:02:20.157Z,48.83
2019-02-09T09:04:47.245Z,47.02
2019-02-09T09:07:19.969Z,44.12
2019-02-09T09:09:52.712Z,44.55
2019-02-09T09:12:25.449Z,47.66
2019-02-09T09:14:58.096Z,49.32
2019-02-09T09:17:30.803Z,51.24
2019-02-09T09:20:03.502Z,52.62
2019-02-09T09:22:36.234Z,52.31
2019-02-09T09:25:09.056Z,52.39
2019-02-09T09:27:41.720Z,55.85
2019-02-09T09:30:17.963Z,56.94
2019-02-09T09:32:50.745Z,52.78
2019-02-09T09:40:42.096Z,51.70
2019-02-09T10:14:37.549Z,49.02
2019-02-09T10:20:20.821Z,47.35
2019-02-09T10:22:53.711Z,47.77
2019-02-09T10:31:04.014Z,51.04
2019-02-09T10:33:36.768Z,48.22
2019-02-09T11:03:20.364Z,45.64
2019-02-09T11:05:53.406Z,48.37
2019-02-09T11:08:26.228Z,48.98
2019-02-09T11:10:58.973Z,49.52
2019-02-09T11:13:37.317Z,49.61
2019-02-09T11:16:10.123Z,48.63
